sensor_id;sensor_type;location;lat;lon;timestamp;P1;durP1;ratioP1;P2;durP2;ratioP2
7444;SDS011;3764;48.126;11.594;2022-10-16T00:01:06;4.18;;;2.65;;
7444;SDS011;3764;48.126;11.594;2022-10-16T00:03:36;5.68;;;2.28;;
7444;SDS011;3764;48.126;11.594;2022-10-16T00:06:03;4.53;;;2.10;;
7444;SDS011;3764;48.126;11.594;2022-10-16T00:08:31;4.72;;;2.38;;
7444;SDS011;3764;48.126;11.594;2022-10-16T00:11:00;4.50;;;2.35;;
7444;SDS011;3764;48.126;11.594;2022-10-16T00:13:28;2.65;;;2.15;;
7444;SDS011;3764;48.126;11.594;2022-10-16T00:15:57;4.32;;;2.20;;
7444;SDS011;3764;48.126;11.594;2022-10-16T00:18:28;2.75;;;2.20;;
7444;SDS011;3764;48.126;11.594;2022-10-16T00:21:01;2.33;;;2.10;;
7444;SDS011;3764;48.126;11.594;2022-10-16T00:23:28;5.70;;;2.70;;
7444;SDS011;3764;48.126;11.594;2022-10-16T00:25:56;2.53;;;2.10;;
7444;SDS011;3764;48.126;11.594;2022-10-16T00:28:25;2.88;;;2.15;;
7444;SDS011;3764;48.126;11.594;2022-10-16T00:30:52;6.47;;;2.30;;
7444;SDS011;3764;48.126;11.594;2022-10-16T00:33:21;2.60;;;2.15;;
7444;SDS011;3764;48.126;11.594;2022-10-16T00:35:49;4.82;;;2.35;;
7444;SDS011;3764;48.126;11.594;2022-10-16T00:38:16;4.38;;;2.17;;
7444;SDS011;3764;48.126;11.594;2022-10-16T00:40:43;6.10;;;2.30;;
7444;SDS011;3764;48.126;11.594;2022-10-16T00:43:14;6.38;;;3.13;;
7444;SDS011;3764;48.126;11.594;2022-10-16T00:45:56;4.15;;;2.20;;
7444;SDS011;3764;48.126;11.594;2022-10-16T00:48:24;6.50;;;2.15;;
7444;SDS011;3764;48.126;11.594;2022-10-16T00:50:52;2.65;;;2.25;;
7444;SDS011;3764;48.126;11.594;2022-10-16T00:53:19;7.57;;;2.72;;
7444;SDS011;3764;48.126;11.594;2022-10-16T00:55:48;4.18;;;2.42;;
7444;SDS011;3764;48.126;11.594;2022-10-16T00:58:15;5.13;;;2.33;;
7444;SDS011;3764;48.126;11.594;2022-10-16T01:00:42;2.00;;;1.67;;
7444;SDS011;3764;48.126;11.594;2022-10-16T01:03:22;2.42;;;1.83;;
7444;SDS011;3764;48.126;11.594;2022-10-16T01:05:55;2.75;;;2.00;;
7444;SDS011;3764;48.126;11.594;2022-10-16T01:08:38;3.47;;;2.10;;
7444;SDS011;3764;48.126;11.594;2022-10-16T01:11:16;2.75;;;2.20;;
7444;SDS011;3764;48.126;11.594;2022-10-16T01:13:51;5.65;;;2.22;;
7444;SDS011;3764;48.126;11.594;2022-10-16T01:16:23;3.20;;;2.28;;
7444;SDS011;3764;48.126;11.594;2022-10-16T01:19:00;4.05;;;2.00;;
7444;SDS011;3764;48.126;11.594;2022-10-16T01:21:36;2.53;;;2.03;;
7444;SDS011;3764;48.126;11.594;2022-10-16T01:24:07;2.72;;;2.20;;
7444;SDS011;3764;48.126;11.594;2022-10-16T01:26:49;3.20;;;2.28;;
7444;SDS011;3764;48.126;11.594;2022-10-16T01:29:34;2.92;;;2.33;;
7444;SDS011;3764;48.126;11.594;2022-10-16T01:32:08;3.65;;;2.40;;
7444;SDS011;3764;48.126;11.594;2022-10-16T01:34:42;2.80;;;2.00;;
7444;SDS011;3764;48.126;11.594;2022-10-16T01:37:16;10.63;;;2.38;;
7444;SDS011;3764;48.126;11.594;2022-10-16T01:39:48;3.13;;;2.25;;
7444;SDS011;3764;48.126;11.594;2022-10-16T01:42:19;3.47;;;2.22;;
7444;SDS011;3764;48.126;11.594;2022-10-16T01:44:50;2.55;;;2.30;;
7444;SDS011;3764;48.126;11.594;2022-10-16T01:47:18;2.42;;;1.95;;
7444;SDS011;3764;48.126;11.594;2022-10-16T01:49:50;6.28;;;2.20;;
7444;SDS011;3764;48.126;11.594;2022-10-16T01:52:19;2.63;;;2.25;;
7444;SDS011;3764;48.126;11.594;2022-10-16T01:54:50;3.45;;;2.20;;
7444;SDS011;3764;48.126;11.594;2022-10-16T01:57:20;2.28;;;2.05;;
7444;SDS011;3764;48.126;11.594;2022-10-16T01:59:52;2.42;;;1.90;;
7444;SDS011;3764;48.126;11.594;2022-10-16T02:02:22;1.95;;;1.70;;
7444;SDS011;3764;48.126;11.594;2022-10-16T02:04:56;5.75;;;1.90;;
7444;SDS011;3764;48.126;11.594;2022-10-16T02:07:26;1.60;;;1.33;;
7444;SDS011;3764;48.126;11.594;2022-10-16T02:09:53;2.80;;;1.80;;
7444;SDS011;3764;48.126;11.594;2022-10-16T02:12:22;3.53;;;1.92;;
7444;SDS011;3764;48.126;11.594;2022-10-16T02:14:54;3.15;;;1.63;;
7444;SDS011;3764;48.126;11.594;2022-10-16T02:17:21;2.70;;;2.00;;
7444;SDS011;3764;48.126;11.594;2022-10-16T02:19:49;1.63;;;1.45;;
7444;SDS011;3764;48.126;11.594;2022-10-16T02:22:21;1.80;;;1.50;;
7444;SDS011;3764;48.126;11.594;2022-10-16T02:24:51;1.98;;;1.70;;
7444;SDS011;3764;48.126;11.594;2022-10-16T02:27:24;2.20;;;1.55;;
7444;SDS011;3764;48.126;11.594;2022-10-16T02:29:58;2.40;;;1.80;;
7444;SDS011;3764;48.126;11.594;2022-10-16T02:32:33;2.38;;;1.70;;
7444;SDS011;3764;48.126;11.594;2022-10-16T02:35:02;2.25;;;1.80;;
7444;SDS011;3764;48.126;11.594;2022-10-16T02:37:30;2.13;;;1.50;;
7444;SDS011;3764;48.126;11.594;2022-10-16T02:39:58;2.63;;;2.05;;
7444;SDS011;3764;48.126;11.594;2022-10-16T02:42:29;2.78;;;1.65;;
7444;SDS011;3764;48.126;11.594;2022-10-16T02:45:00;2.40;;;1.65;;
7444;SDS011;3764;48.126;11.594;2022-10-16T02:47:27;4.45;;;1.65;;
7444;SDS011;3764;48.126;11.594;2022-10-16T02:49:54;2.40;;;1.80;;
7444;SDS011;3764;48.126;11.594;2022-10-16T02:52:21;1.80;;;1.60;;
7444;SDS011;3764;48.126;11.594;2022-10-16T02:54:48;9.45;;;2.08;;
7444;SDS011;3764;48.126;11.594;2022-10-16T02:57:15;3.00;;;2.00;;
7444;SDS011;3764;48.126;11.594;2022-10-16T02:59:43;7.07;;;1.70;;
7444;SDS011;3764;48.126;11.594;2022-10-16T03:02:11;4.80;;;1.50;;
7444;SDS011;3764;48.126;11.594;2022-10-16T03:04:38;2.53;;;1.50;;
7444;SDS011;3764;48.126;11.594;2022-10-16T03:07:05;5.63;;;1.90;;
7444;SDS011;3764;48.126;11.594;2022-10-16T03:09:33;1.67;;;1.40;;
7444;SDS011;3764;48.126;11.594;2022-10-16T03:12:00;2.63;;;1.80;;
7444;SDS011;3764;48.126;11.594;2022-10-16T03:14:27;5.15;;;1.95;;
7444;SDS011;3764;48.126;11.594;2022-10-16T03:16:54;1.67;;;1.42;;
7444;SDS011;3764;48.126;11.594;2022-10-16T03:19:23;5.38;;;1.75;;
7444;SDS011;3764;48.126;11.594;2022-10-16T03:21:50;2.75;;;1.90;;
7444;SDS011;3764;48.126;11.594;2022-10-16T03:24:17;2.15;;;1.60;;
7444;SDS011;3764;48.126;11.594;2022-10-16T03:26:45;2.45;;;1.60;;
7444;SDS011;3764;48.126;11.594;2022-10-16T03:29:12;2.03;;;1.70;;
7444;SDS011;3764;48.126;11.594;2022-10-16T03:31:39;2.80;;;1.73;;
7444;SDS011;3764;48.126;11.594;2022-10-16T03:34:06;2.15;;;1.50;;
7444;SDS011;3764;48.126;11.594;2022-10-16T03:36:34;1.92;;;1.40;;
7444;SDS011;3764;48.126;11.594;2022-10-16T03:39:01;2.15;;;1.80;;
7444;SDS011;3764;48.126;11.594;2022-10-16T03:41:29;1.95;;;1.50;;
7444;SDS011;3764;48.126;11.594;2022-10-16T03:43:56;2.85;;;1.65;;
7444;SDS011;3764;48.126;11.594;2022-10-16T03:46:23;2.85;;;1.60;;
7444;SDS011;3764;48.126;11.594;2022-10-16T03:48:50;2.47;;;1.80;;
7444;SDS011;3764;48.126;11.594;2022-10-16T03:51:17;3.08;;;1.77;;
7444;SDS011;3764;48.126;11.594;2022-10-16T03:53:45;4.15;;;1.98;;
7444;SDS011;3764;48.126;11.594;2022-10-16T03:56:13;2.35;;;1.85;;
7444;SDS011;3764;48.126;11.594;2022-10-16T03:58:40;2.65;;;2.00;;
7444;SDS011;3764;48.126;11.594;2022-10-16T04:01:07;3.03;;;1.52;;
7444;SDS011;3764;48.126;11.594;2022-10-16T04:03:34;2.20;;;2.00;;
7444;SDS011;3764;48.126;11.594;2022-10-16T04:06:01;9.90;;;2.17;;
7444;SDS011;3764;48.126;11.594;2022-10-16T04:08:28;2.45;;;1.77;;
7444;SDS011;3764;48.126;11.594;2022-10-16T04:10:57;1.92;;;1.38;;
7444;SDS011;3764;48.126;11.594;2022-10-16T04:13:24;3.63;;;1.85;;
7444;SDS011;3764;48.126;11.594;2022-10-16T04:15:51;4.07;;;1.77;;
7444;SDS011;3764;48.126;11.594;2022-10-16T04:18:18;2.78;;;1.70;;
7444;SDS011;3764;48.126;11.594;2022-10-16T04:20:45;4.05;;;2.00;;
7444;SDS011;3764;48.126;11.594;2022-10-16T04:23:12;3.33;;;1.55;;
7444;SDS011;3764;48.126;11.594;2022-10-16T04:25:39;2.40;;;1.75;;
7444;SDS011;3764;48.126;11.594;2022-10-16T04:28:07;2.08;;;1.88;;
7444;SDS011;3764;48.126;11.594;2022-10-16T04:30:37;2.33;;;1.83;;
7444;SDS011;3764;48.126;11.594;2022-10-16T04:33:04;3.50;;;1.80;;
7444;SDS011;3764;48.126;11.594;2022-10-16T04:35:31;2.22;;;1.75;;
7444;SDS011;3764;48.126;11.594;2022-10-16T04:37:58;2.42;;;1.65;;
7444;SDS011;3764;48.126;11.594;2022-10-16T04:40:25;3.58;;;1.63;;
7444;SDS011;3764;48.126;11.594;2022-10-16T04:42:52;9.23;;;2.05;;
7444;SDS011;3764;48.126;11.594;2022-10-16T04:45:20;3.05;;;2.00;;
7444;SDS011;3764;48.126;11.594;2022-10-16T04:47:48;2.00;;;1.80;;
7444;SDS011;3764;48.126;11.594;2022-10-16T04:50:15;2.50;;;2.08;;
7444;SDS011;3764;48.126;11.594;2022-10-16T04:52:42;2.95;;;1.90;;
7444;SDS011;3764;48.126;11.594;2022-10-16T04:55:09;3.30;;;1.60;;
7444;SDS011;3764;48.126;11.594;2022-10-16T04:57:36;2.53;;;2.22;;
7444;SDS011;3764;48.126;11.594;2022-10-16T05:00:03;2.92;;;1.85;;
7444;SDS011;3764;48.126;11.594;2022-10-16T05:02:33;2.13;;;1.73;;
7444;SDS011;3764;48.126;11.594;2022-10-16T05:05:00;2.25;;;1.55;;
7444;SDS011;3764;48.126;11.594;2022-10-16T05:07:27;2.10;;;1.60;;
7444;SDS011;3764;48.126;11.594;2022-10-16T05:09:54;3.35;;;1.60;;
7444;SDS011;3764;48.126;11.594;2022-10-16T05:12:21;4.95;;;2.25;;
7444;SDS011;3764;48.126;11.594;2022-10-16T05:14:48;2.92;;;1.70;;
7444;SDS011;3764;48.126;11.594;2022-10-16T05:17:15;3.97;;;1.67;;
7444;SDS011;3764;48.126;11.594;2022-10-16T05:19:44;2.80;;;2.50;;
7444;SDS011;3764;48.126;11.594;2022-10-16T05:22:11;2.38;;;1.70;;
7444;SDS011;3764;48.126;11.594;2022-10-16T05:24:38;2.63;;;1.85;;
7444;SDS011;3764;48.126;11.594;2022-10-16T05:27:05;2.58;;;2.20;;
7444;SDS011;3764;48.126;11.594;2022-10-16T05:29:32;3.25;;;2.33;;
7444;SDS011;3764;48.126;11.594;2022-10-16T05:31:59;2.67;;;1.65;;
7444;SDS011;3764;48.126;11.594;2022-10-16T05:34:26;2.40;;;2.00;;
7444;SDS011;3764;48.126;11.594;2022-10-16T05:36:54;3.25;;;2.03;;
7444;SDS011;3764;48.126;11.594;2022-10-16T05:39:21;2.65;;;2.10;;
7444;SDS011;3764;48.126;11.594;2022-10-16T05:41:49;3.50;;;1.92;;
7444;SDS011;3764;48.126;11.594;2022-10-16T05:44:17;2.80;;;2.10;;
7444;SDS011;3764;48.126;11.594;2022-10-16T05:46:45;2.33;;;2.13;;
7444;SDS011;3764;48.126;11.594;2022-10-16T05:49:12;2.63;;;1.77;;
7444;SDS011;3764;48.126;11.594;2022-10-16T05:51:39;2.25;;;2.05;;
7444;SDS011;3764;48.126;11.594;2022-10-16T05:54:08;3.05;;;2.33;;
7444;SDS011;3764;48.126;11.594;2022-10-16T05:56:36;2.75;;;2.25;;
7444;SDS011;3764;48.126;11.594;2022-10-16T05:59:03;3.70;;;2.17;;
7444;SDS011;3764;48.126;11.594;2022-10-16T06:03:58;3.58;;;3.08;;
7444;SDS011;3764;48.126;11.594;2022-10-16T06:06:26;2.75;;;2.22;;
7444;SDS011;3764;48.126;11.594;2022-10-16T06:08:55;3.97;;;2.92;;
7444;SDS011;3764;48.126;11.594;2022-10-16T06:11:24;5.05;;;2.42;;
7444;SDS011;3764;48.126;11.594;2022-10-16T06:13:54;4.38;;;2.13;;
7444;SDS011;3764;48.126;11.594;2022-10-16T06:16:22;2.47;;;2.10;;
7444;SDS011;3764;48.126;11.594;2022-10-16T06:18:50;4.70;;;2.42;;
7444;SDS011;3764;48.126;11.594;2022-10-16T06:21:19;3.03;;;2.13;;
7444;SDS011;3764;48.126;11.594;2022-10-16T06:23:47;2.20;;;2.00;;
7444;SDS011;3764;48.126;11.594;2022-10-16T06:26:15;5.35;;;2.10;;
7444;SDS011;3764;48.126;11.594;2022-10-16T06:28:45;3.97;;;1.95;;
7444;SDS011;3764;48.126;11.594;2022-10-16T06:31:13;2.75;;;2.17;;
7444;SDS011;3764;48.126;11.594;2022-10-16T06:33:41;2.25;;;1.83;;
7444;SDS011;3764;48.126;11.594;2022-10-16T06:36:09;5.38;;;2.35;;
7444;SDS011;3764;48.126;11.594;2022-10-16T06:38:38;2.75;;;2.42;;
7444;SDS011;3764;48.126;11.594;2022-10-16T06:41:05;3.45;;;2.33;;
7444;SDS011;3764;48.126;11.594;2022-10-16T06:43:34;2.30;;;2.03;;
7444;SDS011;3764;48.126;11.594;2022-10-16T06:46:03;3.55;;;1.80;;
7444;SDS011;3764;48.126;11.594;2022-10-16T06:48:32;2.60;;;1.85;;
7444;SDS011;3764;48.126;11.594;2022-10-16T06:51:00;3.15;;;2.38;;
7444;SDS011;3764;48.126;11.594;2022-10-16T06:53:31;2.47;;;2.28;;
7444;SDS011;3764;48.126;11.594;2022-10-16T06:56:06;2.65;;;2.25;;
7444;SDS011;3764;48.126;11.594;2022-10-16T06:58:34;4.28;;;2.50;;
7444;SDS011;3764;48.126;11.594;2022-10-16T07:01:02;3.80;;;2.45;;
7444;SDS011;3764;48.126;11.594;2022-10-16T07:03:29;3.00;;;2.40;;
7444;SDS011;3764;48.126;11.594;2022-10-16T07:05:57;4.90;;;2.40;;
7444;SDS011;3764;48.126;11.594;2022-10-16T07:08:28;2.72;;;2.42;;
7444;SDS011;3764;48.126;11.594;2022-10-16T07:10:58;3.63;;;2.38;;
7444;SDS011;3764;48.126;11.594;2022-10-16T07:13:26;3.53;;;2.45;;
7444;SDS011;3764;48.126;11.594;2022-10-16T07:15:53;3.95;;;2.78;;
7444;SDS011;3764;48.126;11.594;2022-10-16T07:18:21;5.22;;;2.80;;
7444;SDS011;3764;48.126;11.594;2022-10-16T07:20:52;2.90;;;2.50;;
7444;SDS011;3764;48.126;11.594;2022-10-16T07:23:19;4.38;;;2.83;;
7444;SDS011;3764;48.126;11.594;2022-10-16T07:25:52;4.88;;;2.50;;
7444;SDS011;3764;48.126;11.594;2022-10-16T07:28:20;3.10;;;2.30;;
7444;SDS011;3764;48.126;11.594;2022-10-16T07:30:48;3.83;;;2.85;;
7444;SDS011;3764;48.126;11.594;2022-10-16T07:33:15;4.35;;;2.78;;
7444;SDS011;3764;48.126;11.594;2022-10-16T07:35:48;4.15;;;2.60;;
7444;SDS011;3764;48.126;11.594;2022-10-16T07:38:16;5.07;;;2.85;;
7444;SDS011;3764;48.126;11.594;2022-10-16T07:40:43;4.20;;;3.10;;
7444;SDS011;3764;48.126;11.594;2022-10-16T07:43:11;5.00;;;3.40;;
7444;SDS011;3764;48.126;11.594;2022-10-16T07:45:46;4.00;;;2.63;;
7444;SDS011;3764;48.126;11.594;2022-10-16T07:48:13;4.53;;;3.38;;
7444;SDS011;3764;48.126;11.594;2022-10-16T07:50:41;6.25;;;3.28;;
7444;SDS011;3764;48.126;11.594;2022-10-16T07:53:09;4.53;;;3.00;;
7444;SDS011;3764;48.126;11.594;2022-10-16T07:55:37;3.20;;;2.83;;
7444;SDS011;3764;48.126;11.594;2022-10-16T07:58:05;2.72;;;2.30;;
7444;SDS011;3764;48.126;11.594;2022-10-16T08:00:32;4.20;;;3.78;;
7444;SDS011;3764;48.126;11.594;2022-10-16T08:02:59;3.13;;;2.67;;
7444;SDS011;3764;48.126;11.594;2022-10-16T08:05:26;6.20;;;3.65;;
7444;SDS011;3764;48.126;11.594;2022-10-16T08:07:54;4.78;;;3.33;;
7444;SDS011;3764;48.126;11.594;2022-10-16T08:10:23;4.45;;;3.50;;
7444;SDS011;3764;48.126;11.594;2022-10-16T08:12:51;3.40;;;2.97;;
7444;SDS011;3764;48.126;11.594;2022-10-16T08:15:19;6.53;;;4.07;;
7444;SDS011;3764;48.126;11.594;2022-10-16T08:17:53;4.57;;;3.45;;
7444;SDS011;3764;48.126;11.594;2022-10-16T08:20:21;5.53;;;4.03;;
7444;SDS011;3764;48.126;11.594;2022-10-16T08:22:49;6.38;;;4.50;;
7444;SDS011;3764;48.126;11.594;2022-10-16T08:25:16;4.55;;;3.80;;
7444;SDS011;3764;48.126;11.594;2022-10-16T08:27:44;2.95;;;2.47;;
7444;SDS011;3764;48.126;11.594;2022-10-16T08:30:11;3.38;;;2.53;;
7444;SDS011;3764;48.126;11.594;2022-10-16T08:32:38;5.05;;;2.15;;
7444;SDS011;3764;48.126;11.594;2022-10-16T08:35:06;3.50;;;2.60;;
7444;SDS011;3764;48.126;11.594;2022-10-16T08:37:34;2.88;;;2.53;;
7444;SDS011;3764;48.126;11.594;2022-10-16T08:40:02;5.10;;;2.92;;
7444;SDS011;3764;48.126;11.594;2022-10-16T08:42:32;4.18;;;2.55;;
7444;SDS011;3764;48.126;11.594;2022-10-16T08:48:09;2.53;;;1.95;;
7444;SDS011;3764;48.126;11.594;2022-10-16T08:50:43;2.53;;;1.80;;
7444;SDS011;3764;48.126;11.594;2022-10-16T08:53:14;3.00;;;2.15;;
7444;SDS011;3764;48.126;11.594;2022-10-16T08:55:45;3.83;;;1.95;;
7444;SDS011;3764;48.126;11.594;2022-10-16T08:58:16;3.75;;;2.65;;
7444;SDS011;3764;48.126;11.594;2022-10-16T09:00:46;4.05;;;3.65;;
7444;SDS011;3764;48.126;11.594;2022-10-16T09:03:21;2.75;;;2.47;;
7444;SDS011;3764;48.126;11.594;2022-10-16T09:06:01;3.00;;;2.08;;
7444;SDS011;3764;48.126;11.594;2022-10-16T09:08:46;2.75;;;2.20;;
7444;SDS011;3764;48.126;11.594;2022-10-16T09:11:25;3.67;;;2.38;;
7444;SDS011;3764;48.126;11.594;2022-10-16T09:14:07;3.17;;;2.88;;
7444;SDS011;3764;48.126;11.594;2022-10-16T09:16:53;1.92;;;1.67;;
7444;SDS011;3764;48.126;11.594;2022-10-16T09:19:25;5.47;;;2.63;;
7444;SDS011;3764;48.126;11.594;2022-10-16T09:22:00;4.10;;;2.00;;
7444;SDS011;3764;48.126;11.594;2022-10-16T09:24:35;3.40;;;2.15;;
7444;SDS011;3764;48.126;11.594;2022-10-16T09:27:03;4.10;;;2.60;;
7444;SDS011;3764;48.126;11.594;2022-10-16T09:29:30;5.40;;;1.80;;
7444;SDS011;3764;48.126;11.594;2022-10-16T09:32:05;2.20;;;2.00;;
7444;SDS011;3764;48.126;11.594;2022-10-16T09:34:37;3.22;;;2.05;;
7444;SDS011;3764;48.126;11.594;2022-10-16T09:37:09;5.35;;;4.10;;
7444;SDS011;3764;48.126;11.594;2022-10-16T09:39:45;7.65;;;3.35;;
7444;SDS011;3764;48.126;11.594;2022-10-16T09:42:14;2.25;;;2.05;;
7444;SDS011;3764;48.126;11.594;2022-10-16T09:44:46;2.47;;;1.90;;
7444;SDS011;3764;48.126;11.594;2022-10-16T09:47:17;3.38;;;2.88;;
7444;SDS011;3764;48.126;11.594;2022-10-16T09:49:50;2.78;;;2.10;;
7444;SDS011;3764;48.126;11.594;2022-10-16T09:52:18;2.45;;;2.13;;
7444;SDS011;3764;48.126;11.594;2022-10-16T09:54:49;2.25;;;1.77;;
7444;SDS011;3764;48.126;11.594;2022-10-16T09:57:17;3.70;;;2.10;;
7444;SDS011;3764;48.126;11.594;2022-10-16T09:59:46;2.03;;;1.80;;
7444;SDS011;3764;48.126;11.594;2022-10-16T10:02:14;2.90;;;1.83;;
7444;SDS011;3764;48.126;11.594;2022-10-16T10:04:47;2.42;;;2.22;;
7444;SDS011;3764;48.126;11.594;2022-10-16T10:07:21;3.25;;;2.40;;
7444;SDS011;3764;48.126;11.594;2022-10-16T10:09:51;2.13;;;1.77;;
7444;SDS011;3764;48.126;11.594;2022-10-16T10:12:20;2.90;;;2.40;;
7444;SDS011;3764;48.126;11.594;2022-10-16T10:14:50;2.30;;;2.00;;
7444;SDS011;3764;48.126;11.594;2022-10-16T10:17:20;2.95;;;2.45;;
7444;SDS011;3764;48.126;11.594;2022-10-16T10:19:52;3.08;;;2.70;;
7444;SDS011;3764;48.126;11.594;2022-10-16T10:22:24;2.70;;;2.22;;
7444;SDS011;3764;48.126;11.594;2022-10-16T10:25:14;4.60;;;2.60;;
7444;SDS011;3764;48.126;11.594;2022-10-16T10:27:52;4.33;;;2.10;;
7444;SDS011;3764;48.126;11.594;2022-10-16T10:30:31;5.90;;;2.53;;
7444;SDS011;3764;48.126;11.594;2022-10-16T10:33:09;3.67;;;2.77;;
7444;SDS011;3764;48.126;11.594;2022-10-16T10:35:45;3.35;;;2.42;;
7444;SDS011;3764;48.126;11.594;2022-10-16T10:38:23;2.50;;;2.17;;
7444;SDS011;3764;48.126;11.594;2022-10-16T10:41:00;4.65;;;2.80;;
7444;SDS011;3764;48.126;11.594;2022-10-16T10:43:42;3.50;;;2.27;;
7444;SDS011;3764;48.126;11.594;2022-10-16T10:46:21;2.30;;;1.90;;
7444;SDS011;3764;48.126;11.594;2022-10-16T10:49:01;3.40;;;2.63;;
7444;SDS011;3764;48.126;11.594;2022-10-16T10:51:39;2.80;;;2.30;;
7444;SDS011;3764;48.126;11.594;2022-10-16T10:54:14;3.93;;;2.60;;
7444;SDS011;3764;48.126;11.594;2022-10-16T10:56:47;2.10;;;1.70;;
7444;SDS011;3764;48.126;11.594;2022-10-16T11:02:14;3.47;;;1.87;;
7444;SDS011;3764;48.126;11.594;2022-10-16T11:04:53;2.10;;;1.90;;
7444;SDS011;3764;48.126;11.594;2022-10-16T11:07:28;4.00;;;2.43;;
7444;SDS011;3764;48.126;11.594;2022-10-16T11:09:59;2.83;;;2.13;;
7444;SDS011;3764;48.126;11.594;2022-10-16T11:12:30;2.40;;;1.90;;
7444;SDS011;3764;48.126;11.594;2022-10-16T11:15:02;2.67;;;1.80;;
7444;SDS011;3764;48.126;11.594;2022-10-16T11:17:34;2.20;;;2.00;;
7444;SDS011;3764;48.126;11.594;2022-10-16T11:20:11;1.70;;;1.40;;
7444;SDS011;3764;48.126;11.594;2022-10-16T11:22:41;4.23;;;1.63;;
7444;SDS011;3764;48.126;11.594;2022-10-16T11:25:14;2.10;;;1.60;;
7444;SDS011;3764;48.126;11.594;2022-10-16T11:27:44;4.43;;;2.00;;
7444;SDS011;3764;48.126;11.594;2022-10-16T11:30:18;2.13;;;1.80;;
7444;SDS011;3764;48.126;11.594;2022-10-16T11:33:00;2.80;;;1.73;;
7444;SDS011;3764;48.126;11.594;2022-10-16T11:35:38;2.70;;;1.80;;
7444;SDS011;3764;48.126;11.594;2022-10-16T11:38:12;3.70;;;2.93;;
7444;SDS011;3764;48.126;11.594;2022-10-16T11:40:42;2.17;;;1.77;;
7444;SDS011;3764;48.126;11.594;2022-10-16T11:43:13;2.80;;;1.87;;
7444;SDS011;3764;48.126;11.594;2022-10-16T11:45:48;2.13;;;1.47;;
7444;SDS011;3764;48.126;11.594;2022-10-16T11:48:20;2.70;;;1.40;;
7444;SDS011;3764;48.126;11.594;2022-10-16T11:50:56;1.80;;;1.40;;
7444;SDS011;3764;48.126;11.594;2022-10-16T11:53:44;2.80;;;1.17;;
7444;SDS011;3764;48.126;11.594;2022-10-16T11:56:15;2.80;;;1.93;;
7444;SDS011;3764;48.126;11.594;2022-10-16T11:58:48;1.90;;;1.30;;
7444;SDS011;3764;48.126;11.594;2022-10-16T12:01:21;2.20;;;1.10;;
7444;SDS011;3764;48.126;11.594;2022-10-16T12:03:58;2.10;;;1.63;;
7444;SDS011;3764;48.126;11.594;2022-10-16T12:06:33;1.97;;;1.03;;
7444;SDS011;3764;48.126;11.594;2022-10-16T12:09:03;1.33;;;1.00;;
7444;SDS011;3764;48.126;11.594;2022-10-16T12:11:33;3.20;;;1.30;;
7444;SDS011;3764;48.126;11.594;2022-10-16T12:17:00;1.77;;;1.10;;
7444;SDS011;3764;48.126;11.594;2022-10-16T12:19:31;1.70;;;1.10;;
7444;SDS011;3764;48.126;11.594;2022-10-16T12:22:00;1.30;;;1.20;;
7444;SDS011;3764;48.126;11.594;2022-10-16T12:24:31;1.80;;;1.10;;
7444;SDS011;3764;48.126;11.594;2022-10-16T12:27:02;1.60;;;1.20;;
7444;SDS011;3764;48.126;11.594;2022-10-16T12:29:36;2.07;;;1.30;;
7444;SDS011;3764;48.126;11.594;2022-10-16T12:32:05;1.57;;;1.10;;
7444;SDS011;3764;48.126;11.594;2022-10-16T12:34:48;1.50;;;1.10;;
7444;SDS011;3764;48.126;11.594;2022-10-16T12:37:20;1.70;;;1.10;;
7444;SDS011;3764;48.126;11.594;2022-10-16T12:39:50;2.27;;;1.93;;
7444;SDS011;3764;48.126;11.594;2022-10-16T12:42:20;3.90;;;3.40;;
7444;SDS011;3764;48.126;11.594;2022-10-16T12:44:50;3.57;;;2.40;;
7444;SDS011;3764;48.126;11.594;2022-10-16T12:47:21;3.40;;;2.10;;
7444;SDS011;3764;48.126;11.594;2022-10-16T12:49:50;3.23;;;2.30;;
7444;SDS011;3764;48.126;11.594;2022-10-16T12:52:25;3.77;;;2.83;;
7444;SDS011;3764;48.126;11.594;2022-10-16T12:54:58;4.63;;;1.40;;
7444;SDS011;3764;48.126;11.594;2022-10-16T12:57:34;1.60;;;1.20;;
7444;SDS011;3764;48.126;11.594;2022-10-16T13:00:13;2.17;;;1.40;;
7444;SDS011;3764;48.126;11.594;2022-10-16T13:03:09;1.40;;;0.93;;
7444;SDS011;3764;48.126;11.594;2022-10-16T13:05:58;2.93;;;1.40;;
7444;SDS011;3764;48.126;11.594;2022-10-16T13:08:44;3.23;;;2.70;;
7444;SDS011;3764;48.126;11.594;2022-10-16T13:11:23;3.43;;;2.50;;
7444;SDS011;3764;48.126;11.594;2022-10-16T13:14:17;3.70;;;2.97;;
7444;SDS011;3764;48.126;11.594;2022-10-16T13:22:53;4.33;;;3.40;;
7444;SDS011;3764;48.126;11.594;2022-10-16T13:25:30;5.93;;;2.27;;
7444;SDS011;3764;48.126;11.594;2022-10-16T13:28:10;2.23;;;1.67;;
7444;SDS011;3764;48.126;11.594;2022-10-16T13:30:40;2.87;;;1.57;;
7444;SDS011;3764;48.126;11.594;2022-10-16T13:33:12;4.60;;;1.60;;
7444;SDS011;3764;48.126;11.594;2022-10-16T13:35:52;1.90;;;1.50;;
7444;SDS011;3764;48.126;11.594;2022-10-16T13:38:21;1.90;;;1.27;;
7444;SDS011;3764;48.126;11.594;2022-10-16T13:40:52;3.50;;;2.00;;
7444;SDS011;3764;48.126;11.594;2022-10-16T13:43:21;2.53;;;2.17;;
7444;SDS011;3764;48.126;11.594;2022-10-16T13:45:53;2.00;;;1.40;;
7444;SDS011;3764;48.126;11.594;2022-10-16T13:48:21;1.87;;;1.60;;
7444;SDS011;3764;48.126;11.594;2022-10-16T13:50:58;2.37;;;2.13;;
7444;SDS011;3764;48.126;11.594;2022-10-16T13:53:26;2.07;;;1.73;;
7444;SDS011;3764;48.126;11.594;2022-10-16T13:58:40;1.80;;;1.60;;
7444;SDS011;3764;48.126;11.594;2022-10-16T14:01:15;3.00;;;1.90;;
7444;SDS011;3764;48.126;11.594;2022-10-16T14:03:44;2.10;;;1.57;;
7444;SDS011;3764;48.126;11.594;2022-10-16T14:09:19;3.10;;;2.33;;
7444;SDS011;3764;48.126;11.594;2022-10-16T14:11:50;2.90;;;2.30;;
7444;SDS011;3764;48.126;11.594;2022-10-16T14:14:21;2.53;;;1.97;;
7444;SDS011;3764;48.126;11.594;2022-10-16T14:16:51;2.60;;;2.00;;
7444;SDS011;3764;48.126;11.594;2022-10-16T14:19:25;2.90;;;2.10;;
7444;SDS011;3764;48.126;11.594;2022-10-16T14:21:54;3.60;;;2.60;;
7444;SDS011;3764;48.126;11.594;2022-10-16T14:24:25;4.93;;;3.07;;
7444;SDS011;3764;48.126;11.594;2022-10-16T14:26:53;4.93;;;3.70;;
7444;SDS011;3764;48.126;11.594;2022-10-16T14:29:24;4.80;;;4.10;;
7444;SDS011;3764;48.126;11.594;2022-10-16T14:31:56;7.60;;;5.60;;
7444;SDS011;3764;48.126;11.594;2022-10-16T14:34:26;8.80;;;7.90;;
7444;SDS011;3764;48.126;11.594;2022-10-16T14:36:56;8.47;;;7.53;;
7444;SDS011;3764;48.126;11.594;2022-10-16T14:39:26;8.60;;;7.70;;
7444;SDS011;3764;48.126;11.594;2022-10-16T14:41:55;9.13;;;8.03;;
7444;SDS011;3764;48.126;11.594;2022-10-16T14:44:26;9.30;;;7.07;;
7444;SDS011;3764;48.126;11.594;2022-10-16T14:46:55;9.40;;;7.37;;
7444;SDS011;3764;48.126;11.594;2022-10-16T14:49:24;9.73;;;7.70;;
7444;SDS011;3764;48.126;11.594;2022-10-16T14:51:53;9.10;;;7.70;;
7444;SDS011;3764;48.126;11.594;2022-10-16T14:54:20;8.10;;;7.07;;
7444;SDS011;3764;48.126;11.594;2022-10-16T14:56:48;13.23;;;7.10;;
7444;SDS011;3764;48.126;11.594;2022-10-16T14:59:19;10.30;;;7.73;;
7444;SDS011;3764;48.126;11.594;2022-10-16T15:01:53;8.57;;;6.70;;
7444;SDS011;3764;48.126;11.594;2022-10-16T15:04:20;10.27;;;6.80;;
7444;SDS011;3764;48.126;11.594;2022-10-16T15:06:47;6.83;;;5.80;;
7444;SDS011;3764;48.126;11.594;2022-10-16T15:09:14;17.90;;;11.77;;
7444;SDS011;3764;48.126;11.594;2022-10-16T15:11:41;15.53;;;11.67;;
7444;SDS011;3764;48.126;11.594;2022-10-16T15:14:10;9.20;;;7.83;;
7444;SDS011;3764;48.126;11.594;2022-10-16T15:16:38;12.43;;;9.30;;
7444;SDS011;3764;48.126;11.594;2022-10-16T15:19:07;9.50;;;8.00;;
7444;SDS011;3764;48.126;11.594;2022-10-16T15:21:34;10.57;;;9.30;;
7444;SDS011;3764;48.126;11.594;2022-10-16T15:24:01;9.50;;;7.93;;
7444;SDS011;3764;48.126;11.594;2022-10-16T15:26:28;6.23;;;4.93;;
7444;SDS011;3764;48.126;11.594;2022-10-16T15:28:56;5.23;;;3.97;;
7444;SDS011;3764;48.126;11.594;2022-10-16T15:31:23;5.23;;;3.53;;
7444;SDS011;3764;48.126;11.594;2022-10-16T15:33:51;3.57;;;3.13;;
7444;SDS011;3764;48.126;11.594;2022-10-16T15:36:27;3.30;;;3.00;;
7444;SDS011;3764;48.126;11.594;2022-10-16T15:38:56;3.40;;;3.00;;
7444;SDS011;3764;48.126;11.594;2022-10-16T15:41:23;4.90;;;3.70;;
7444;SDS011;3764;48.126;11.594;2022-10-16T15:43:50;3.90;;;2.83;;